Página principal
METAR-TAF:

METAR-TAF

Aeroportos :

Aeroporto Internacional de Ecaterimburgo-Koltsovo

Ecaterimburgo, Rússia

latitude: 56-50N, longitude: 060-38E, altura: 237 m

METAR: em falta

Hora: 08:42 (03:42 UTC)

Previsão

O boletim foi feito há 1 hora e 48 minutos, às 01:54 UTC
Previsão válida de 14 às 03 UTC a 15 às 03 UTC
Vento 6 kt de sudoeste com rajadas de 19 kt
Visibilidade 10 km ou mais
Nuvens fragmentadasa uma altura de 1600 ft
Nuvens fragmentadasa uma altura de 2000 ft, Cumulonimbus.
Tornando-se
de 14 às 05 UTC a 14 às 06 UTC
Vento 6 kt de oeste com rajadas de 23 kt
Temporariamente
de 14 às 06 UTC a 14 às 16 UTC
Vento 14 kt de oeste com rajadas de 33 kt
Visibilidade: 6000 m
aguaceiros fracos de chuva
Tornando-se
de 14 às 20 UTC a 14 às 21 UTC
Vento 6 kt de oes-noroeste com rajadas de 19 kt

TAF: USSS 140154Z 1403/1503 22003G10MPS 9999 BKN016 BKN020CB BECMG 1405/1406 26003G12MPS TEMPO 1406/1416 28007G17MPS 6000 -SHRA BECMG 1420/1421 29003G10MPS

Observações e previsões do tempo de mais de 4000 aeroportos (mensagens METAR e TAF).

As estações disponíveis são os pontos amarelos e vermelhos sobre o mapa.

Mova o rato sobre o mapa para ver o nome da estação.

Depois clique no ponto para visualizar as observações e previsões meteorológicas.

Para alterar o mapa : clique nos botões verdes com uma cruz preta para aumentar o zoom; no botão verde com uma pitada de zoom; ou nas setas verdes para mapas adjacentes.


METAR-TAF: